Miri Airport
WBGR : now visible

Airfield :











YOU CAN JOIN US ON...

 
LOGIN :

Register | Disclaimer

   EN    FR    IT 

 









Legend :    VFR   Marginal VFR   IFR   Intensive IFR   Very Intensive IFR
Visi :
Ceiling :
>= 8 km
>= 3000ft
5 to 8 km
1000 to 3000 ft
1500m to 5 km
500 to 1000 ft
800 to 1500m
200 to 500 ft
< 800m
< 200 ft
Symbols :   Thunderstorms  Fog  Heavy snow  Heavy precipitations  Wind > 20 kt






- Airport Elevation : 59 ft
- IATA code : MYY


WBGR - Miri

CURRENT METAR :
  • 170000Z 13005KT 090V170 9999 FEW016 SCT150 BKN300 28/25 Q1011

EXPIRED METARs :
  • 162300Z 13004KT 9999 FEW016 BKN150 25/24 Q1011
  • 162200Z VRB02KT 9999 FEW016 BKN150 24/24 Q1010

TAF TAF WBGR
Valid from the 17 at 00:00 until the 18 at 00:00 UTC


162300Z 1700/1800 VRB03KT 9999 SCT016



MET'MAP, your aeronautical weather chart ! - Copyright ORBIFLY December 2007 - Disclaimer

ORBIFLY MET'MAP TEAM :

Programming & Development : Alexandra Zaïnal
Concept & Development : Baudouin d'Aumeries
Co-Development & Prog : Marc-Olivier Méhu
Technical & hardware support : Manuel Goepfert

Contact : metmap@orbifly.com




SOURCES & CREDITS :

   NOAA       Earth
Advisory